sensor_id;sensor_type;location;lat;lon;timestamp;temperature;humidity
43099;DHT22;28715;51.988;6.020;2023-03-02T00:00:56;2.80;98.10
43099;DHT22;28715;51.988;6.020;2023-03-02T00:03:23;2.80;98.40
43099;DHT22;28715;51.988;6.020;2023-03-02T00:05:48;2.80;98.80
43099;DHT22;28715;51.988;6.020;2023-03-02T00:08:16;2.70;99.60
43099;DHT22;28715;51.988;6.020;2023-03-02T00:10:43;2.70;99.80
43099;DHT22;28715;51.988;6.020;2023-03-02T00:13:09;2.70;99.90
43099;DHT22;28715;51.988;6.020;2023-03-02T00:15:35;2.60;99.90
43099;DHT22;28715;51.988;6.020;2023-03-02T00:18:00;2.60;99.90
43099;DHT22;28715;51.988;6.020;2023-03-02T00:20:26;2.60;99.90
43099;DHT22;28715;51.988;6.020;2023-03-02T00:22:52;2.50;99.90
43099;DHT22;28715;51.988;6.020;2023-03-02T00:25:17;2.50;99.90
43099;DHT22;28715;51.988;6.020;2023-03-02T00:27:43;2.50;99.90
43099;DHT22;28715;51.988;6.020;2023-03-02T00:30:11;2.50;99.90
43099;DHT22;28715;51.988;6.020;2023-03-02T00:32:37;2.40;99.90
43099;DHT22;28715;51.988;6.020;2023-03-02T00:35:03;2.40;99.90
43099;DHT22;28715;51.988;6.020;2023-03-02T00:37:29;2.40;99.90
43099;DHT22;28715;51.988;6.020;2023-03-02T00:39:54;2.40;99.90
43099;DHT22;28715;51.988;6.020;2023-03-02T00:42:20;2.40;99.90
43099;DHT22;28715;51.988;6.020;2023-03-02T00:44:46;2.40;99.90
43099;DHT22;28715;51.988;6.020;2023-03-02T00:47:12;2.40;99.90
43099;DHT22;28715;51.988;6.020;2023-03-02T00:49:38;2.40;99.90
43099;DHT22;28715;51.988;6.020;2023-03-02T00:52:04;2.40;99.90
43099;DHT22;28715;51.988;6.020;2023-03-02T00:54:30;2.40;99.90
43099;DHT22;28715;51.988;6.020;2023-03-02T00:56:55;2.40;99.90
43099;DHT22;28715;51.988;6.020;2023-03-02T00:59:21;2.40;99.90
43099;DHT22;28715;51.988;6.020;2023-03-02T01:01:59;2.50;99.90
43099;DHT22;28715;51.988;6.020;2023-03-02T01:04:31;2.50;99.90
43099;DHT22;28715;51.988;6.020;2023-03-02T01:06:58;2.40;99.90
43099;DHT22;28715;51.988;6.020;2023-03-02T01:09:24;2.40;99.90
43099;DHT22;28715;51.988;6.020;2023-03-02T01:11:50;2.40;99.90
43099;DHT22;28715;51.988;6.020;2023-03-02T01:14:16;2.40;99.90
43099;DHT22;28715;51.988;6.020;2023-03-02T01:16:41;2.40;99.90
43099;DHT22;28715;51.988;6.020;2023-03-02T01:19:07;2.40;99.90
43099;DHT22;28715;51.988;6.020;2023-03-02T01:21:32;2.40;99.90
43099;DHT22;28715;51.988;6.020;2023-03-02T01:23:58;2.50;99.90
43099;DHT22;28715;51.988;6.020;2023-03-02T01:26:24;2.50;99.90
43099;DHT22;28715;51.988;6.020;2023-03-02T01:28:49;2.50;99.90
43099;DHT22;28715;51.988;6.020;2023-03-02T01:31:23;2.40;99.90
43099;DHT22;28715;51.988;6.020;2023-03-02T01:33:48;2.40;99.90
43099;DHT22;28715;51.988;6.020;2023-03-02T01:36:14;2.30;99.90
43099;DHT22;28715;51.988;6.020;2023-03-02T01:38:40;2.30;99.90
43099;DHT22;28715;51.988;6.020;2023-03-02T01:41:05;2.30;99.90
43099;DHT22;28715;51.988;6.020;2023-03-02T01:43:31;2.30;99.90
43099;DHT22;28715;51.988;6.020;2023-03-02T01:46:13;2.30;99.90
43099;DHT22;28715;51.988;6.020;2023-03-02T01:51:15;2.40;99.90
43099;DHT22;28715;51.988;6.020;2023-03-02T01:53:43;2.30;99.90
43099;DHT22;28715;51.988;6.020;2023-03-02T01:56:13;2.30;99.90
43099;DHT22;28715;51.988;6.020;2023-03-02T01:58:39;2.30;99.90
43099;DHT22;28715;51.988;6.020;2023-03-02T02:01:06;2.20;99.90
43099;DHT22;28715;51.988;6.020;2023-03-02T02:03:41;2.10;99.90
43099;DHT22;28715;51.988;6.020;2023-03-02T02:08:43;2.10;99.90
43099;DHT22;28715;51.988;6.020;2023-03-02T02:11:11;2.10;99.90
43099;DHT22;28715;51.988;6.020;2023-03-02T02:13:37;2.00;99.90
43099;DHT22;28715;51.988;6.020;2023-03-02T02:16:03;2.00;99.90
43099;DHT22;28715;51.988;6.020;2023-03-02T02:18:29;2.00;99.90
43099;DHT22;28715;51.988;6.020;2023-03-02T02:20:55;2.00;99.90
43099;DHT22;28715;51.988;6.020;2023-03-02T02:23:48;2.00;99.90
43099;DHT22;28715;51.988;6.020;2023-03-02T02:26:22;2.00;99.90
43099;DHT22;28715;51.988;6.020;2023-03-02T02:28:54;1.90;99.90
43099;DHT22;28715;51.988;6.020;2023-03-02T02:31:47;1.90;99.90
43099;DHT22;28715;51.988;6.020;2023-03-02T02:34:22;1.80;99.90
43099;DHT22;28715;51.988;6.020;2023-03-02T02:36:53;1.80;99.90
43099;DHT22;28715;51.988;6.020;2023-03-02T02:39:41;1.70;99.90
43099;DHT22;28715;51.988;6.020;2023-03-02T02:42:13;1.70;99.90
43099;DHT22;28715;51.988;6.020;2023-03-02T02:44:39;1.70;99.90
43099;DHT22;28715;51.988;6.020;2023-03-02T02:47:14;1.70;99.90
43099;DHT22;28715;51.988;6.020;2023-03-02T02:49:40;1.60;99.90
43099;DHT22;28715;51.988;6.020;2023-03-02T02:52:08;1.60;99.90
43099;DHT22;28715;51.988;6.020;2023-03-02T02:54:35;1.60;99.90
43099;DHT22;28715;51.988;6.020;2023-03-02T02:57:02;1.60;99.90
43099;DHT22;28715;51.988;6.020;2023-03-02T02:59:32;1.60;99.90
43099;DHT22;28715;51.988;6.020;2023-03-02T03:02:00;1.60;99.90
43099;DHT22;28715;51.988;6.020;2023-03-02T03:04:28;1.60;99.90
43099;DHT22;28715;51.988;6.020;2023-03-02T03:06:57;1.50;99.90
43099;DHT22;28715;51.988;6.020;2023-03-02T03:09:24;1.60;99.90
43099;DHT22;28715;51.988;6.020;2023-03-02T03:11:52;1.50;99.90
43099;DHT22;28715;51.988;6.020;2023-03-02T03:14:23;1.50;99.90
43099;DHT22;28715;51.988;6.020;2023-03-02T03:16:51;1.50;99.90
43099;DHT22;28715;51.988;6.020;2023-03-02T03:19:23;1.50;99.90
43099;DHT22;28715;51.988;6.020;2023-03-02T03:21:52;1.50;99.90
43099;DHT22;28715;51.988;6.020;2023-03-02T03:24:18;1.50;99.90
43099;DHT22;28715;51.988;6.020;2023-03-02T03:26:44;1.50;99.90
43099;DHT22;28715;51.988;6.020;2023-03-02T03:29:11;1.50;99.90
43099;DHT22;28715;51.988;6.020;2023-03-02T03:31:37;1.50;99.90
43099;DHT22;28715;51.988;6.020;2023-03-02T03:34:03;1.40;99.90
43099;DHT22;28715;51.988;6.020;2023-03-02T03:36:30;1.50;99.90
43099;DHT22;28715;51.988;6.020;2023-03-02T03:38:56;1.40;99.90
43099;DHT22;28715;51.988;6.020;2023-03-02T03:41:23;1.40;99.90
43099;DHT22;28715;51.988;6.020;2023-03-02T03:43:49;1.50;99.90
43099;DHT22;28715;51.988;6.020;2023-03-02T03:46:15;1.40;99.90
43099;DHT22;28715;51.988;6.020;2023-03-02T03:48:41;1.40;99.90
43099;DHT22;28715;51.988;6.020;2023-03-02T03:51:07;1.40;99.90
43099;DHT22;28715;51.988;6.020;2023-03-02T03:53:33;1.40;99.90
43099;DHT22;28715;51.988;6.020;2023-03-02T03:55:59;1.40;99.90
43099;DHT22;28715;51.988;6.020;2023-03-02T03:58:25;1.40;99.90
43099;DHT22;28715;51.988;6.020;2023-03-02T04:00:52;1.40;99.90
43099;DHT22;28715;51.988;6.020;2023-03-02T04:03:18;1.40;99.90
43099;DHT22;28715;51.988;6.020;2023-03-02T04:05:45;1.30;99.90
43099;DHT22;28715;51.988;6.020;2023-03-02T04:08:12;1.30;99.90
43099;DHT22;28715;51.988;6.020;2023-03-02T04:10:37;1.30;99.90
43099;DHT22;28715;51.988;6.020;2023-03-02T04:13:04;1.20;99.90
43099;DHT22;28715;51.988;6.020;2023-03-02T04:15:29;1.20;99.90
43099;DHT22;28715;51.988;6.020;2023-03-02T04:17:55;1.30;99.90
43099;DHT22;28715;51.988;6.020;2023-03-02T04:20:22;1.20;99.90
43099;DHT22;28715;51.988;6.020;2023-03-02T04:22:49;1.20;99.90
43099;DHT22;28715;51.988;6.020;2023-03-02T04:25:17;1.10;99.90
43099;DHT22;28715;51.988;6.020;2023-03-02T04:27:45;1.10;99.90
43099;DHT22;28715;51.988;6.020;2023-03-02T04:30:13;1.10;99.90
43099;DHT22;28715;51.988;6.020;2023-03-02T04:32:39;1.20;99.90
43099;DHT22;28715;51.988;6.020;2023-03-02T04:35:05;1.10;99.90
43099;DHT22;28715;51.988;6.020;2023-03-02T04:37:30;1.10;99.90
43099;DHT22;28715;51.988;6.020;2023-03-02T04:39:56;1.20;99.90
43099;DHT22;28715;51.988;6.020;2023-03-02T04:42:22;1.10;99.90
43099;DHT22;28715;51.988;6.020;2023-03-02T04:44:48;1.10;99.90
43099;DHT22;28715;51.988;6.020;2023-03-02T04:47:14;1.10;99.90
43099;DHT22;28715;51.988;6.020;2023-03-02T04:49:39;1.10;99.90
43099;DHT22;28715;51.988;6.020;2023-03-02T04:52:05;1.10;99.90
43099;DHT22;28715;51.988;6.020;2023-03-02T04:54:31;1.10;99.90
43099;DHT22;28715;51.988;6.020;2023-03-02T04:56:57;1.00;99.90
43099;DHT22;28715;51.988;6.020;2023-03-02T04:59:25;1.10;99.90
43099;DHT22;28715;51.988;6.020;2023-03-02T05:01:53;1.00;99.90
43099;DHT22;28715;51.988;6.020;2023-03-02T05:04:19;1.10;99.90
43099;DHT22;28715;51.988;6.020;2023-03-02T05:06:45;1.10;99.90
43099;DHT22;28715;51.988;6.020;2023-03-02T05:09:11;1.00;99.90
43099;DHT22;28715;51.988;6.020;2023-03-02T05:11:36;1.00;99.90
43099;DHT22;28715;51.988;6.020;2023-03-02T05:14:05;1.00;99.90
43099;DHT22;28715;51.988;6.020;2023-03-02T05:16:32;1.00;99.90
43099;DHT22;28715;51.988;6.020;2023-03-02T05:18:59;1.00;99.90
43099;DHT22;28715;51.988;6.020;2023-03-02T05:21:25;1.00;99.90
43099;DHT22;28715;51.988;6.020;2023-03-02T05:23:51;0.90;99.90
43099;DHT22;28715;51.988;6.020;2023-03-02T05:26:17;0.90;99.90
43099;DHT22;28715;51.988;6.020;2023-03-02T05:28:43;0.90;99.90
43099;DHT22;28715;51.988;6.020;2023-03-02T05:31:54;0.90;99.90
43099;DHT22;28715;51.988;6.020;2023-03-02T05:33:55;0.90;99.90
43099;DHT22;28715;51.988;6.020;2023-03-02T05:36:21;0.90;99.90
43099;DHT22;28715;51.988;6.020;2023-03-02T05:38:46;0.90;99.90
43099;DHT22;28715;51.988;6.020;2023-03-02T05:41:12;0.90;99.90
43099;DHT22;28715;51.988;6.020;2023-03-02T05:43:38;0.80;99.90
43099;DHT22;28715;51.988;6.020;2023-03-02T05:46:03;0.80;99.90
43099;DHT22;28715;51.988;6.020;2023-03-02T05:48:29;0.80;99.90
43099;DHT22;28715;51.988;6.020;2023-03-02T05:50:55;0.70;99.90
43099;DHT22;28715;51.988;6.020;2023-03-02T05:53:21;0.70;99.90
43099;DHT22;28715;51.988;6.020;2023-03-02T05:55:47;0.70;99.90
43099;DHT22;28715;51.988;6.020;2023-03-02T05:58:16;0.70;99.90
43099;DHT22;28715;51.988;6.020;2023-03-02T06:00:43;0.70;99.90
43099;DHT22;28715;51.988;6.020;2023-03-02T06:03:09;0.70;99.90
43099;DHT22;28715;51.988;6.020;2023-03-02T06:05:35;0.70;99.90
43099;DHT22;28715;51.988;6.020;2023-03-02T06:08:01;0.60;99.90
43099;DHT22;28715;51.988;6.020;2023-03-02T06:10:27;0.60;99.90
43099;DHT22;28715;51.988;6.020;2023-03-02T06:12:52;0.60;99.90
43099;DHT22;28715;51.988;6.020;2023-03-02T06:15:18;0.60;99.90
43099;DHT22;28715;51.988;6.020;2023-03-02T06:17:44;0.60;99.90
43099;DHT22;28715;51.988;6.020;2023-03-02T06:20:10;0.50;99.90
43099;DHT22;28715;51.988;6.020;2023-03-02T06:22:42;0.50;99.90
43099;DHT22;28715;51.988;6.020;2023-03-02T06:25:11;0.50;99.90
43099;DHT22;28715;51.988;6.020;2023-03-02T06:27:39;0.50;99.90
43099;DHT22;28715;51.988;6.020;2023-03-02T06:30:06;0.50;99.90
43099;DHT22;28715;51.988;6.020;2023-03-02T06:32:33;0.50;99.90
43099;DHT22;28715;51.988;6.020;2023-03-02T06:35:00;0.50;99.90
43099;DHT22;28715;51.988;6.020;2023-03-02T06:37:27;0.50;99.90
43099;DHT22;28715;51.988;6.020;2023-03-02T06:39:55;0.50;99.90
43099;DHT22;28715;51.988;6.020;2023-03-02T06:42:21;0.40;99.90
43099;DHT22;28715;51.988;6.020;2023-03-02T06:44:47;0.50;99.90
43099;DHT22;28715;51.988;6.020;2023-03-02T06:47:13;0.50;99.90
43099;DHT22;28715;51.988;6.020;2023-03-02T06:49:38;0.50;99.90
43099;DHT22;28715;51.988;6.020;2023-03-02T06:52:04;0.60;99.90
43099;DHT22;28715;51.988;6.020;2023-03-02T06:54:32;0.60;99.90
43099;DHT22;28715;51.988;6.020;2023-03-02T06:56:57;0.70;99.90
43099;DHT22;28715;51.988;6.020;2023-03-02T06:59:23;0.70;99.90
43099;DHT22;28715;51.988;6.020;2023-03-02T07:01:48;0.70;99.90
43099;DHT22;28715;51.988;6.020;2023-03-02T07:04:15;0.80;99.90
43099;DHT22;28715;51.988;6.020;2023-03-02T07:06:40;0.90;99.90
43099;DHT22;28715;51.988;6.020;2023-03-02T07:09:06;1.00;99.90
43099;DHT22;28715;51.988;6.020;2023-03-02T07:11:32;1.00;99.90
43099;DHT22;28715;51.988;6.020;2023-03-02T07:13:59;1.20;99.90
43099;DHT22;28715;51.988;6.020;2023-03-02T07:16:25;1.30;99.90
43099;DHT22;28715;51.988;6.020;2023-03-02T07:18:50;1.40;99.90
43099;DHT22;28715;51.988;6.020;2023-03-02T07:21:16;1.50;99.90
43099;DHT22;28715;51.988;6.020;2023-03-02T07:23:41;1.50;99.90
43099;DHT22;28715;51.988;6.020;2023-03-02T07:26:07;1.60;99.90
43099;DHT22;28715;51.988;6.020;2023-03-02T07:28:34;1.70;99.90
43099;DHT22;28715;51.988;6.020;2023-03-02T07:31:00;1.80;99.90
43099;DHT22;28715;51.988;6.020;2023-03-02T07:33:25;1.90;99.90
43099;DHT22;28715;51.988;6.020;2023-03-02T07:35:51;1.90;99.90
43099;DHT22;28715;51.988;6.020;2023-03-02T07:38:16;2.10;99.90
43099;DHT22;28715;51.988;6.020;2023-03-02T07:40:43;2.20;99.90
43099;DHT22;28715;51.988;6.020;2023-03-02T07:43:09;2.40;99.90
43099;DHT22;28715;51.988;6.020;2023-03-02T07:45:36;2.50;99.90
43099;DHT22;28715;51.988;6.020;2023-03-02T07:48:02;2.60;99.90
43099;DHT22;28715;51.988;6.020;2023-03-02T07:50:28;2.80;99.90
43099;DHT22;28715;51.988;6.020;2023-03-02T07:52:54;2.90;99.90
43099;DHT22;28715;51.988;6.020;2023-03-02T07:55:19;3.00;99.90
43099;DHT22;28715;51.988;6.020;2023-03-02T07:57:45;3.10;99.90
43099;DHT22;28715;51.988;6.020;2023-03-02T08:00:11;3.20;99.90
43099;DHT22;28715;51.988;6.020;2023-03-02T08:02:37;3.40;99.90
43099;DHT22;28715;51.988;6.020;2023-03-02T08:05:04;3.40;99.90
43099;DHT22;28715;51.988;6.020;2023-03-02T08:07:29;3.40;99.90
43099;DHT22;28715;51.988;6.020;2023-03-02T08:09:55;3.40;99.90
43099;DHT22;28715;51.988;6.020;2023-03-02T08:12:22;3.50;99.90
43099;DHT22;28715;51.988;6.020;2023-03-02T08:14:48;3.70;99.90
43099;DHT22;28715;51.988;6.020;2023-03-02T08:17:13;3.90;99.90
43099;DHT22;28715;51.988;6.020;2023-03-02T08:19:39;4.10;99.90
43099;DHT22;28715;51.988;6.020;2023-03-02T08:22:04;4.40;99.50
43099;DHT22;28715;51.988;6.020;2023-03-02T08:24:30;4.50;99.30
43099;DHT22;28715;51.988;6.020;2023-03-02T08:27:00;4.70;98.80
43099;DHT22;28715;51.988;6.020;2023-03-02T08:29:26;4.90;98.60
43099;DHT22;28715;51.988;6.020;2023-03-02T08:31:51;5.10;98.30
43099;DHT22;28715;51.988;6.020;2023-03-02T08:34:17;5.30;97.60
43099;DHT22;28715;51.988;6.020;2023-03-02T08:36:43;5.40;97.80
43099;DHT22;28715;51.988;6.020;2023-03-02T08:39:08;5.70;97.40
43099;DHT22;28715;51.988;6.020;2023-03-02T08:41:34;5.90;96.90
43099;DHT22;28715;51.988;6.020;2023-03-02T08:44:00;6.10;96.40
43099;DHT22;28715;51.988;6.020;2023-03-02T08:46:25;6.20;96.30
43099;DHT22;28715;51.988;6.020;2023-03-02T08:48:51;6.30;95.50
43099;DHT22;28715;51.988;6.020;2023-03-02T08:51:20;6.30;95.80
43099;DHT22;28715;51.988;6.020;2023-03-02T08:53:48;6.40;95.70
43099;DHT22;28715;51.988;6.020;2023-03-02T08:56:27;6.40;95.10
43099;DHT22;28715;51.988;6.020;2023-03-02T08:58:57;6.30;95.70
43099;DHT22;28715;51.988;6.020;2023-03-02T09:01:26;6.50;95.50
43099;DHT22;28715;51.988;6.020;2023-03-02T09:03:53;6.50;95.10
43099;DHT22;28715;51.988;6.020;2023-03-02T09:06:19;6.50;95.50
43099;DHT22;28715;51.988;6.020;2023-03-02T09:08:45;6.50;94.80
43099;DHT22;28715;51.988;6.020;2023-03-02T09:11:11;6.50;95.00
43099;DHT22;28715;51.988;6.020;2023-03-02T09:13:37;6.60;95.10
43099;DHT22;28715;51.988;6.020;2023-03-02T09:16:03;6.70;94.80
43099;DHT22;28715;51.988;6.020;2023-03-02T09:18:29;6.80;95.00
43099;DHT22;28715;51.988;6.020;2023-03-02T09:20:55;7.00;94.90
43099;DHT22;28715;51.988;6.020;2023-03-02T09:23:23;7.20;94.70
43099;DHT22;28715;51.988;6.020;2023-03-02T09:25:49;7.40;94.50
43099;DHT22;28715;51.988;6.020;2023-03-02T09:28:16;7.60;93.90
43099;DHT22;28715;51.988;6.020;2023-03-02T09:30:50;7.50;93.40
43099;DHT22;28715;51.988;6.020;2023-03-02T09:33:16;7.50;93.70
43099;DHT22;28715;51.988;6.020;2023-03-02T09:35:42;7.50;93.60
43099;DHT22;28715;51.988;6.020;2023-03-02T09:38:07;7.70;94.00
43099;DHT22;28715;51.988;6.020;2023-03-02T09:40:40;7.80;93.60
43099;DHT22;28715;51.988;6.020;2023-03-02T09:43:23;7.90;93.30
43099;DHT22;28715;51.988;6.020;2023-03-02T09:46:14;8.10;93.00
43099;DHT22;28715;51.988;6.020;2023-03-02T09:48:48;8.30;92.70
43099;DHT22;28715;51.988;6.020;2023-03-02T09:51:35;8.40;92.50
43099;DHT22;28715;51.988;6.020;2023-03-02T09:54:11;8.40;92.30
43099;DHT22;28715;51.988;6.020;2023-03-02T09:56:46;8.60;92.30
43099;DHT22;28715;51.988;6.020;2023-03-02T09:59:20;8.60;92.20
43099;DHT22;28715;51.988;6.020;2023-03-02T10:04:30;8.90;92.10
43099;DHT22;28715;51.988;6.020;2023-03-02T10:07:09;9.10;91.60
43099;DHT22;28715;51.988;6.020;2023-03-02T10:09:36;9.20;91.20
43099;DHT22;28715;51.988;6.020;2023-03-02T10:12:15;9.30;91.00
43099;DHT22;28715;51.988;6.020;2023-03-02T10:14:48;9.30;91.00
43099;DHT22;28715;51.988;6.020;2023-03-02T10:17:45;9.50;90.80
43099;DHT22;28715;51.988;6.020;2023-03-02T10:23:31;9.60;90.20
43099;DHT22;28715;51.988;6.020;2023-03-02T10:28:59;9.70;90.20
43099;DHT22;28715;51.988;6.020;2023-03-02T10:31:30;9.90;90.20
43099;DHT22;28715;51.988;6.020;2023-03-02T10:33:57;10.00;89.20
43099;DHT22;28715;51.988;6.020;2023-03-02T10:36:25;10.10;89.60
43099;DHT22;28715;51.988;6.020;2023-03-02T10:38:53;10.20;87.90
43099;DHT22;28715;51.988;6.020;2023-03-02T10:41:31;10.00;87.30
43099;DHT22;28715;51.988;6.020;2023-03-02T10:44:01;9.90;88.70
43099;DHT22;28715;51.988;6.020;2023-03-02T10:46:42;10.00;89.20
43099;DHT22;28715;51.988;6.020;2023-03-02T10:52:08;10.40;88.10
43099;DHT22;28715;51.988;6.020;2023-03-02T10:54:36;10.50;87.20
43099;DHT22;28715;51.988;6.020;2023-03-02T10:57:04;10.60;87.60
43099;DHT22;28715;51.988;6.020;2023-03-02T10:59:48;10.70;86.30
43099;DHT22;28715;51.988;6.020;2023-03-02T11:02:23;10.70;87.00
43099;DHT22;28715;51.988;6.020;2023-03-02T11:04:55;10.70;86.60
43099;DHT22;28715;51.988;6.020;2023-03-02T11:07:25;10.60;86.70
43099;DHT22;28715;51.988;6.020;2023-03-02T11:09:56;10.70;88.10
43099;DHT22;28715;51.988;6.020;2023-03-02T11:12:22;10.80;87.20
43099;DHT22;28715;51.988;6.020;2023-03-02T11:14:48;10.80;86.40
43099;DHT22;28715;51.988;6.020;2023-03-02T11:19:54;10.80;87.00
43099;DHT22;28715;51.988;6.020;2023-03-02T11:22:40;10.60;86.70
43099;DHT22;28715;51.988;6.020;2023-03-02T11:28:16;10.20;88.20
43099;DHT22;28715;51.988;6.020;2023-03-02T11:30:47;10.20;87.90
43099;DHT22;28715;51.988;6.020;2023-03-02T11:33:23;10.10;87.80
43099;DHT22;28715;51.988;6.020;2023-03-02T11:35:53;10.20;88.20
43099;DHT22;28715;51.988;6.020;2023-03-02T11:38:26;10.20;88.10
43099;DHT22;28715;51.988;6.020;2023-03-02T11:41:08;10.30;87.20
43099;DHT22;28715;51.988;6.020;2023-03-02T11:43:38;10.30;87.70
43099;DHT22;28715;51.988;6.020;2023-03-02T11:46:05;10.40;87.40
43099;DHT22;28715;51.988;6.020;2023-03-02T11:48:58;10.40;88.60
43099;DHT22;28715;51.988;6.020;2023-03-02T11:51:26;10.50;88.40
43099;DHT22;28715;51.988;6.020;2023-03-02T11:56:29;10.40;86.60
43099;DHT22;28715;51.988;6.020;2023-03-02T11:58:59;10.40;87.80
43099;DHT22;28715;51.988;6.020;2023-03-02T12:01:26;10.40;88.10
43099;DHT22;28715;51.988;6.020;2023-03-02T12:03:53;10.50;87.20
43099;DHT22;28715;51.988;6.020;2023-03-02T12:08:52;10.50;87.70
43099;DHT22;28715;51.988;6.020;2023-03-02T12:13:56;10.60;86.90
43099;DHT22;28715;51.988;6.020;2023-03-02T12:16:35;10.70;86.00
43099;DHT22;28715;51.988;6.020;2023-03-02T12:19:38;10.70;86.40
43099;DHT22;28715;51.988;6.020;2023-03-02T12:22:05;10.60;86.30
43099;DHT22;28715;51.988;6.020;2023-03-02T12:24:38;10.50;86.00
43099;DHT22;28715;51.988;6.020;2023-03-02T12:29:43;10.30;88.10
43099;DHT22;28715;51.988;6.020;2023-03-02T12:32:29;10.40;89.90
43099;DHT22;28715;51.988;6.020;2023-03-02T12:35:02;10.40;87.20
43099;DHT22;28715;51.988;6.020;2023-03-02T12:37:51;10.30;86.90
43099;DHT22;28715;51.988;6.020;2023-03-02T12:40:38;10.20;88.40
43099;DHT22;28715;51.988;6.020;2023-03-02T12:46:15;9.90;88.60
43099;DHT22;28715;51.988;6.020;2023-03-02T12:48:46;10.00;88.30
43099;DHT22;28715;51.988;6.020;2023-03-02T12:51:23;10.10;88.40
43099;DHT22;28715;51.988;6.020;2023-03-02T12:54:22;10.20;88.20
43099;DHT22;28715;51.988;6.020;2023-03-02T12:56:47;10.20;88.80
43099;DHT22;28715;51.988;6.020;2023-03-02T12:59:21;10.30;88.60
43099;DHT22;28715;51.988;6.020;2023-03-02T13:01:47;10.20;87.60
43099;DHT22;28715;51.988;6.020;2023-03-02T13:04:24;10.10;87.60
43099;DHT22;28715;51.988;6.020;2023-03-02T13:06:52;10.00;88.60
43099;DHT22;28715;51.988;6.020;2023-03-02T13:09:18;10.00;89.00
43099;DHT22;28715;51.988;6.020;2023-03-02T13:11:46;10.10;88.00
43099;DHT22;28715;51.988;6.020;2023-03-02T13:14:19;10.00;87.10
43099;DHT22;28715;51.988;6.020;2023-03-02T13:16:59;10.00;87.90
43099;DHT22;28715;51.988;6.020;2023-03-02T13:19:28;10.00;88.10
43099;DHT22;28715;51.988;6.020;2023-03-02T13:21:58;10.20;88.20
43099;DHT22;28715;51.988;6.020;2023-03-02T13:24:45;10.30;88.80
43099;DHT22;28715;51.988;6.020;2023-03-02T13:27:18;10.40;87.40
43099;DHT22;28715;51.988;6.020;2023-03-02T13:29:45;10.50;88.20
43099;DHT22;28715;51.988;6.020;2023-03-02T13:32:16;10.40;85.50
43099;DHT22;28715;51.988;6.020;2023-03-02T13:34:57;10.40;86.00
43099;DHT22;28715;51.988;6.020;2023-03-02T13:37:35;10.50;85.30
43099;DHT22;28715;51.988;6.020;2023-03-02T13:42:56;10.50;86.30
43099;DHT22;28715;51.988;6.020;2023-03-02T13:45:33;10.60;86.00
43099;DHT22;28715;51.988;6.020;2023-03-02T13:48:11;10.60;85.80
43099;DHT22;28715;51.988;6.020;2023-03-02T13:50:39;10.60;86.30
43099;DHT22;28715;51.988;6.020;2023-03-02T13:53:05;10.60;85.80
43099;DHT22;28715;51.988;6.020;2023-03-02T13:55:32;10.60;85.20
43099;DHT22;28715;51.988;6.020;2023-03-02T13:57:58;10.50;85.10
43099;DHT22;28715;51.988;6.020;2023-03-02T14:00:33;10.50;86.90
43099;DHT22;28715;51.988;6.020;2023-03-02T14:02:59;10.40;84.70
43099;DHT22;28715;51.988;6.020;2023-03-02T14:05:26;10.30;85.20
43099;DHT22;28715;51.988;6.020;2023-03-02T14:07:57;10.20;86.60
43099;DHT22;28715;51.988;6.020;2023-03-02T14:10:23;10.10;86.50
43099;DHT22;28715;51.988;6.020;2023-03-02T14:13:12;10.00;87.00
43099;DHT22;28715;51.988;6.020;2023-03-02T14:15:41;10.00;87.10
43099;DHT22;28715;51.988;6.020;2023-03-02T14:18:30;10.10;87.20
43099;DHT22;28715;51.988;6.020;2023-03-02T14:20:57;10.10;86.40
43099;DHT22;28715;51.988;6.020;2023-03-02T14:23:24;10.10;85.80
43099;DHT22;28715;51.988;6.020;2023-03-02T14:25:50;10.00;86.10
43099;DHT22;28715;51.988;6.020;2023-03-02T14:28:22;10.00;86.20
43099;DHT22;28715;51.988;6.020;2023-03-02T14:30:53;10.00;86.00
43099;DHT22;28715;51.988;6.020;2023-03-02T14:33:19;10.10;86.30
43099;DHT22;28715;51.988;6.020;2023-03-02T14:35:45;10.10;86.70
43099;DHT22;28715;51.988;6.020;2023-03-02T14:38:12;10.20;87.40
43099;DHT22;28715;51.988;6.020;2023-03-02T14:40:38;10.20;86.50
43099;DHT22;28715;51.988;6.020;2023-03-02T14:43:03;10.20;86.80
43099;DHT22;28715;51.988;6.020;2023-03-02T14:45:29;10.10;87.60
43099;DHT22;28715;51.988;6.020;2023-03-02T14:47:55;10.10;87.20
43099;DHT22;28715;51.988;6.020;2023-03-02T14:50:20;10.00;87.50
43099;DHT22;28715;51.988;6.020;2023-03-02T14:52:51;10.00;87.20
43099;DHT22;28715;51.988;6.020;2023-03-02T14:55:21;10.10;87.30
43099;DHT22;28715;51.988;6.020;2023-03-02T14:57:53;10.10;87.40
43099;DHT22;28715;51.988;6.020;2023-03-02T15:00:20;10.10;87.70
43099;DHT22;28715;51.988;6.020;2023-03-02T15:02:46;10.00;87.40
43099;DHT22;28715;51.988;6.020;2023-03-02T15:05:12;10.00;87.00
43099;DHT22;28715;51.988;6.020;2023-03-02T15:07:38;10.00;88.00
43099;DHT22;28715;51.988;6.020;2023-03-02T15:10:04;10.10;88.20
43099;DHT22;28715;51.988;6.020;2023-03-02T15:12:30;10.10;87.90
43099;DHT22;28715;51.988;6.020;2023-03-02T15:14:56;10.10;87.10
43099;DHT22;28715;51.988;6.020;2023-03-02T15:17:21;10.10;85.20
43099;DHT22;28715;51.988;6.020;2023-03-02T15:19:47;10.20;86.60
43099;DHT22;28715;51.988;6.020;2023-03-02T15:22:13;10.30;87.10
43099;DHT22;28715;51.988;6.020;2023-03-02T15:24:38;10.20;86.90
43099;DHT22;28715;51.988;6.020;2023-03-02T15:27:04;10.10;87.50
43099;DHT22;28715;51.988;6.020;2023-03-02T15:29:29;10.10;87.10
43099;DHT22;28715;51.988;6.020;2023-03-02T15:31:55;10.00;87.10
43099;DHT22;28715;51.988;6.020;2023-03-02T15:34:21;10.00;87.80
43099;DHT22;28715;51.988;6.020;2023-03-02T15:36:46;9.90;88.00
43099;DHT22;28715;51.988;6.020;2023-03-02T15:39:12;9.80;87.00
43099;DHT22;28715;51.988;6.020;2023-03-02T15:41:39;9.70;87.50
43099;DHT22;28715;51.988;6.020;2023-03-02T15:44:06;9.60;88.00
43099;DHT22;28715;51.988;6.020;2023-03-02T15:46:32;9.60;87.60
43099;DHT22;28715;51.988;6.020;2023-03-02T15:48:57;9.50;88.40
43099;DHT22;28715;51.988;6.020;2023-03-02T15:51:23;9.50;88.70
43099;DHT22;28715;51.988;6.020;2023-03-02T15:53:49;9.50;87.90
43099;DHT22;28715;51.988;6.020;2023-03-02T15:56:15;9.50;88.00
43099;DHT22;28715;51.988;6.020;2023-03-02T15:58:46;9.40;88.50
43099;DHT22;28715;51.988;6.020;2023-03-02T16:01:12;9.40;87.40
43099;DHT22;28715;51.988;6.020;2023-03-02T16:03:40;9.30;87.00
43099;DHT22;28715;51.988;6.020;2023-03-02T16:16:44;9.10;89.30
43099;DHT22;28715;51.988;6.020;2023-03-02T16:22:48;9.00;90.60
43099;DHT22;28715;51.988;6.020;2023-03-02T16:25:14;9.00;90.80
43099;DHT22;28715;51.988;6.020;2023-03-02T16:27:39;8.80;90.80
43099;DHT22;28715;51.988;6.020;2023-03-02T16:30:05;8.80;91.10
43099;DHT22;28715;51.988;6.020;2023-03-02T16:32:31;8.80;91.20
43099;DHT22;28715;51.988;6.020;2023-03-02T16:34:58;8.70;91.30
43099;DHT22;28715;51.988;6.020;2023-03-02T16:37:24;8.60;91.60
43099;DHT22;28715;51.988;6.020;2023-03-02T16:39:49;8.50;91.90
43099;DHT22;28715;51.988;6.020;2023-03-02T16:42:15;8.50;92.00
43099;DHT22;28715;51.988;6.020;2023-03-02T16:44:40;8.40;92.20